Time;durP1;ratioP1;P1;durP2;ratioP2;P2;SDS_P1;SDS_P2;PMS_P1;PMS_P2;Temp;Humidity;BMP_temperature;BMP_pressure;BME280_temperature;BME280_humidity;BME280_pressure;Samples;Min_cycle;Max_cycle;Signal;HPM_P1;HPM_P2
2021/06/30 07:16:48;;;;;;;;;;;;;;;20.28;56.17;101167.22;5085927;27;2343;-86
2021/06/30 07:19:13;;;;;;;;;;;;;;;20.24;55.87;101178.97;5058048;28;9732;-83
2021/06/30 07:21:38;;;;;;;;;;;;;;;20.30;56.27;101170.75;5033603;28;779;-86
2021/06/30 07:24:17;;;;;;;;;;;;;;;20.17;55.92;101162.09;5030694;28;1579;-85
2021/06/30 07:27:07;;;;;;;;;;;;;;;20.27;55.94;101160.94;5015817;28;5915;-88
2021/06/30 07:29:33;;;;;;;;;;;;;;;20.26;56.01;101161.84;5032846;28;1819;-86
2021/06/30 07:32:06;;;;;;;;;;;;;;;20.23;55.41;101166.44;5031633;28;1784;-88
2021/06/30 07:35:08;;;;;;;;;;;;;;;20.19;55.48;101171.00;5024808;28;1918;-84
2021/06/30 07:37:35;;;;;;;;;;;;;;;20.18;55.97;101177.31;5034158;28;1737;-80
2021/06/30 07:40:02;;;;;;;;;;;;;;;20.17;55.26;101189.00;5009676;28;1504;-81
2021/06/30 07:42:28;;;;;;;;;;;;;;;20.20;54.98;101188.03;5014094;28;1220;-81
2021/06/30 07:45:06;;;;;;;;;;;;;;;20.16;55.74;101189.03;5006513;28;1464;-85
2021/06/30 07:47:41;;;;;;;;;;;;;;;20.39;55.58;101178.53;5014451;28;1288;-84
2021/06/30 07:50:07;;;;;;;;;;;;;;;20.54;55.27;101182.63;5033036;28;1279;-89
2021/06/30 07:52:43;;;;;;;;;;;;;;;20.60;55.14;101178.88;5022400;28;5061;-88
2021/06/30 07:55:10;;;;;;;;;;;;;;;20.66;55.23;101191.25;5029725;28;1918;-81
2021/06/30 08:04:14;;;;;;;;;;;;;;;22.64;58.55;101171.50;5102635;27;1158;-91
2021/06/30 08:06:39;;;;;;;;;;;;;;;21.86;65.66;101189.47;5111148;28;1363;-91
2021/06/30 08:09:05;;;;;;;;;;;;;;;21.42;68.83;101170.22;5094260;28;1344;-85
2021/06/30 08:12:01;;;;;;;;;;;;;;;21.14;71.61;101190.81;5103986;28;1580;-88
2021/06/30 08:14:54;;;;;;;;;;;;;;;20.93;73.35;101188.75;5054218;28;1286;-89
2021/06/30 08:17:28;;;;;;;;;;;;;;;20.77;75.55;101194.56;5040757;28;1264;-88
2021/06/30 08:19:55;;;;;;;;;;;;;;;20.66;76.31;101191.25;5049350;28;3326;-88
2021/06/30 08:22:40;;;;;;;;;;;;;;;20.57;77.37;101190.63;4981185;28;10364;-88
2021/06/30 08:25:05;;;;;;;;;;;;;;;20.51;77.24;101184.50;4982034;28;1492;-88
2021/06/30 08:27:43;;;;;;;;;;;;;;;20.43;77.27;101182.91;5004077;28;1499;-88
2021/06/30 08:30:38;;;;;;;;;;;;;;;20.38;77.62;101186.66;5023026;28;1556;-88
2021/06/30 08:33:19;;;;;;;;;;;;;;;20.37;78.17;101185.75;4988241;28;1415;-86
2021/06/30 08:35:44;;;;;;;;;;;;;;;20.36;79.07;101191.19;4972763;28;5127;-84
2021/06/30 08:38:10;;;;;;;;;;;;;;;20.34;79.06;101184.97;5005829;28;5510;-86
2021/06/30 08:40:47;;;;;;;;;;;;;;;20.29;79.25;101202.13;4983139;28;1083;-85
2021/06/30 08:43:23;;;;;;;;;;;;;;;20.26;78.82;101199.50;4974353;28;1983;-87
2021/06/30 08:45:58;;;;;;;;;;;;;;;20.28;79.92;101197.66;4974747;28;1237;-86
2021/06/30 08:48:40;;;;;;;;;;;;;;;20.27;79.78;101201.28;5007163;28;1259;-87
2021/06/30 08:51:08;;;;;;;;;;;;;;;20.27;80.50;101206.66;4976501;28;4517;-87
2021/06/30 08:53:35;;;;;;;;;;;;;;;20.28;80.63;101210.25;5007232;28;5316;-89
2021/06/30 08:59:06;;;;;;;;;;;;;;;20.28;81.32;101213.81;5008154;28;1774;-87
2021/06/30 09:01:40;;;;;;;;;;;;;;;20.31;82.30;101218.25;5012526;28;1585;-86
2021/06/30 09:04:09;;;;;;;;;;;;;;;20.34;82.52;101219.94;5009986;28;1898;-86
2021/06/30 09:06:36;;;;;;;;;;;;;;;20.35;83.55;101205.56;5037226;28;1606;-86
2021/06/30 09:09:13;;;;;;;;;;;;;;;20.35;83.92;101219.03;5024918;28;1157;-81
2021/06/30 09:11:38;;;;;;;;;;;;;;;-148.22;100.00;58358.63;5032127;28;1322;-84
2021/06/30 09:14:21;;;;;;;;;;;;;;;-148.22;100.00;58358.63;5026437;28;1734;-85
2021/06/30 09:17:00;;;;;;;;;;;;;;;-148.22;100.00;58358.63;5020254;28;1401;-86
2021/06/30 09:19:44;;;;;;;;;;;;;;;-148.22;100.00;58358.63;5029638;28;1318;-84
2021/06/30 09:22:19;;;;;;;;;;;;;;;-148.22;100.00;58358.63;5017950;28;1906;-88
2021/06/30 09:24:46;;;;;;;;;;;;;;;-148.22;100.00;58358.63;5017044;28;1519;-89
2021/06/30 09:27:47;;;;;;;;;;;;;;;-148.22;100.00;58358.63;5033777;28;1143;-88
2021/06/30 09:30:24;;;;;;;;;;;;;;;-148.22;100.00;58358.63;4998730;28;917;-88
2021/06/30 09:33:08;;;;;;;;;;;;;;;-148.22;100.00;58358.63;5030497;28;1249;-87
2021/06/30 09:36:01;;;;;;;;;;;;;;;-148.22;100.00;58358.63;5044978;28;1601;-87
2021/06/30 09:38:36;;;;;;;;;;;;;;;-148.22;100.00;58358.63;5017032;28;1435;-86
2021/06/30 09:41:28;;;;;;;;;;;;;;;-148.22;100.00;58358.63;5017054;28;1227;-87
2021/06/30 09:47:19;;;;;;;;;;;;;;;-148.22;100.00;58358.63;4963072;28;1437;-89
2021/06/30 09:49:53;;;;;;;;;;;;;;;-148.22;100.00;58358.63;4976371;28;1612;-87
2021/06/30 09:52:36;;;;;;;;;;;;;;;-148.22;100.00;58358.63;4977086;28;1237;-87
2021/06/30 09:55:21;;;;;;;;;;;;;;;-148.22;100.00;58358.63;4977456;28;1329;-88
2021/06/30 09:58:02;;;;;;;;;;;;;;;-148.22;100.00;58358.63;4978311;28;1356;-87
2021/06/30 10:00:43;;;;;;;;;;;;;;;-148.22;100.00;58358.63;4960255;28;1288;-86
2021/06/30 10:03:08;;;;;;;;;;;;;;;-148.22;100.00;58358.63;4956960;28;1950;-87
2021/06/30 10:05:51;;;;;;;;;;;;;;;-148.22;100.00;58358.63;4966778;28;1507;-85
2021/06/30 10:08:37;;;;;;;;;;;;;;;-148.22;100.00;58358.63;4965587;28;1552;-87
2021/06/30 10:11:23;;;;;;;;;;;;;;;-148.22;100.00;58358.63;4976215;28;1323;-87
2021/06/30 10:13:49;;;;;;;;;;;;;;;-148.22;100.00;58358.63;4976488;28;1153;-86
2021/06/30 10:16:17;;;;;;;;;;;;;;;-148.22;100.00;58358.63;4996154;28;1178;-86
2021/06/30 10:18:58;;;;;;;;;;;;;;;-148.22;100.00;58358.63;4996090;28;1192;-86
2021/06/30 10:21:42;;;;;;;;;;;;;;;-148.22;100.00;58358.63;4995639;28;1344;-86
2021/06/30 10:24:36;;;;;;;;;;;;;;;-148.22;100.00;58358.63;5000345;28;1987;-87
2021/06/30 10:27:15;;;;;;;;;;;;;;;-148.22;100.00;58358.63;4997892;28;1611;-85
2021/06/30 10:29:45;;;;;;;;;;;;;;;-148.22;100.00;58358.63;4995952;28;1218;-84
2021/06/30 10:32:30;;;;;;;;;;;;;;;-148.22;100.00;58358.63;4979594;28;1253;-86
2021/06/30 10:38:18;;;;;;;;;;;;;;;-148.22;100.00;58358.63;4995687;28;978;-87
2021/06/30 10:44:04;;;;;;;;;;;;;;;-148.22;100.00;58358.63;5015958;28;1895;-93
2021/06/30 10:52:35;;;;;;;;;;;;;;;-148.22;100.00;58358.63;5017181;28;645;-95
2021/06/30 10:58:43;;;;;;;;;;;;;;;-148.22;100.00;58358.63;5011841;28;1194;-94
2021/06/30 11:01:48;;;;;;;;;;;;;;;-148.22;100.00;58358.63;4999588;28;1233;-94
2021/06/30 11:04:29;;;;;;;;;;;;;;;-148.22;100.00;58358.63;5005726;28;1890;-95
2021/06/30 11:09:57;;;;;;;;;;;;;;;-148.22;100.00;58358.63;4999135;28;585;-96
2021/06/30 11:15:35;;;;;;;;;;;;;;;-148.22;100.00;58358.63;5003213;28;736;-96
2021/06/30 11:21:03;;;;;;;;;;;;;;;-148.22;100.00;58358.63;5003051;28;575;-94
2021/06/30 11:35:44;;;;;;;;;;;;;;;-148.22;100.00;58358.63;5018054;28;590;-96
2021/06/30 11:38:16;;;;;;;;;;;;;;;-148.22;100.00;58358.63;5008116;28;1703;-94
2021/06/30 11:41:25;;;;;;;;;;;;;;;-148.22;100.00;58358.63;5000701;28;1293;-96
2021/06/30 11:43:56;;;;;;;;;;;;;;;-148.22;100.00;58358.63;4997778;28;1922;-89
2021/06/30 11:46:28;;;;;;;;;;;;;;;-148.22;100.00;58358.63;4995195;28;1324;-91
2021/06/30 11:48:54;;;;;;;;;;;;;;;-148.22;100.00;58358.63;4995311;28;1240;-88
2021/06/30 11:51:21;;;;;;;;;;;;;;;-148.22;100.00;58358.63;5019265;28;1297;-89
2021/06/30 11:53:55;;;;;;;;;;;;;;;-148.22;100.00;58358.63;4995913;28;1305;-83
2021/06/30 11:56:45;;;;;;;;;;;;;;;-148.22;100.00;58358.63;4995202;28;1263;-90
2021/06/30 11:59:27;;;;;;;;;;;;;;;-148.22;100.00;58358.63;4996188;28;811;-90
2021/06/30 12:01:59;;;;;;;;;;;;;;;-148.22;100.00;58358.63;4995026;28;1244;-90
2021/06/30 12:04:28;;;;;;;;;;;;;;;-148.22;100.00;58358.63;4995061;28;1196;-90
2021/06/30 12:10:36;;;;;;;;;;;;;;;-148.22;100.00;58358.63;4996290;28;646;-89
2021/06/30 12:13:13;;;;;;;;;;;;;;;-148.22;100.00;58358.63;5013525;28;1505;-89
2021/06/30 12:15:49;;;;;;;;;;;;;;;-148.22;100.00;58358.63;5014393;28;1286;-89
2021/06/30 12:18:39;;;;;;;;;;;;;;;-148.22;100.00;58358.63;5015997;28;1005;-89
2021/06/30 12:21:13;;;;;;;;;;;;;;;-148.22;100.00;58358.63;5014875;28;1168;-89
2021/06/30 12:24:10;;;;;;;;;;;;;;;-148.22;100.00;58358.63;5014617;28;1906;-90
2021/06/30 12:27:11;;;;;;;;;;;;;;;-148.22;100.00;58358.63;5014794;28;1179;-90
2021/06/30 12:29:58;;;;;;;;;;;;;;;-148.22;100.00;58358.63;5014683;28;1668;-90
2021/06/30 12:32:57;;;;;;;;;;;;;;;-148.22;100.00;58358.63;5014741;28;1161;-90
2021/06/30 12:38:41;;;;;;;;;;;;;;;-148.22;100.00;58358.63;5013546;28;1533;-90
2021/06/30 12:41:24;;;;;;;;;;;;;;;-148.22;100.00;58358.63;5013522;28;1398;-89
2021/06/30 12:44:08;;;;;;;;;;;;;;;-148.22;100.00;58358.63;5013539;28;1891;-85
2021/06/30 12:47:03;;;;;;;;;;;;;;;-148.22;100.00;58358.63;5012295;28;1491;-85
2021/06/30 12:50:04;;;;;;;;;;;;;;;-148.22;100.00;58358.63;5013596;28;1483;-86
2021/06/30 12:52:30;;;;;;;;;;;;;;;-148.22;100.00;58358.63;4977219;28;1406;-86
2021/06/30 12:55:21;;;;;;;;;;;;;;;-148.22;100.00;58358.63;4978146;28;1391;-87
2021/06/30 12:58:06;;;;;;;;;;;;;;;-148.22;100.00;58358.63;4977988;28;1395;-87
2021/06/30 13:01:00;;;;;;;;;;;;;;;-148.22;100.00;58358.63;4977898;28;1332;-88
2021/06/30 13:03:26;;;;;;;;;;;;;;;-148.22;100.00;58358.63;4915671;29;1949;-88
2021/06/30 13:05:53;;;;;;;;;;;;;;;-148.22;100.00;58358.63;4920399;29;1274;-89
2021/06/30 13:11:49;;;;;;;;;;;;;;;-148.22;100.00;58358.63;4919388;29;1336;-88
2021/06/30 13:14:19;;;;;;;;;;;;;;;-148.22;100.00;58358.63;4908985;29;1283;-88
2021/06/30 13:20:12;;;;;;;;;;;;;;;-148.22;100.00;58358.63;4920023;29;1594;-88
2021/06/30 13:22:43;;;;;;;;;;;;;;;-148.22;100.00;58358.63;4902564;29;1980;-89
2021/06/30 13:25:13;;;;;;;;;;;;;;;-148.22;100.00;58358.63;4903215;29;1196;-88
2021/06/30 13:28:08;;;;;;;;;;;;;;;-148.22;100.00;58358.63;4922701;29;1380;-91
2021/06/30 13:36:44;;;;;;;;;;;;;;;-148.22;100.00;58358.63;4937000;29;1138;-87
2021/06/30 13:39:20;;;;;;;;;;;;;;;-148.22;100.00;58358.63;4969968;28;1289;-88
2021/06/30 13:41:56;;;;;;;;;;;;;;;-148.22;100.00;58358.63;5015033;28;1152;-89
2021/06/30 13:44:24;;;;;;;;;;;;;;;-148.22;100.00;58358.63;5005526;28;1927;-94
2021/06/30 13:47:00;;;;;;;;;;;;;;;-148.22;100.00;58358.63;5000955;28;1205;-88
2021/06/30 13:49:38;;;;;;;;;;;;;;;-148.22;100.00;58358.63;4999053;28;1291;-89
2021/06/30 13:52:15;;;;;;;;;;;;;;;-148.22;100.00;58358.63;5006255;28;1519;-92
2021/06/30 13:54:40;;;;;;;;;;;;;;;-148.22;100.00;58358.63;4997434;28;1229;-93
2021/06/30 13:57:37;;;;;;;;;;;;;;;-148.22;100.00;58358.63;5013618;28;1156;-92
2021/06/30 14:03:06;;;;;;;;;;;;;;;-148.22;100.00;58358.63;5016786;28;1974;-86
2021/06/30 14:05:31;;;;;;;;;;;;;;;-148.22;100.00;58358.63;5014704;28;1169;-86
2021/06/30 14:08:01;;;;;;;;;;;;;;;-148.22;100.00;58358.63;5014692;28;1168;-86
2021/06/30 14:10:31;;;;;;;;;;;;;;;-148.22;100.00;58358.63;5015892;28;1310;-88
2021/06/30 14:13:05;;;;;;;;;;;;;;;-148.22;100.00;58358.63;5012097;28;1258;-87
2021/06/30 14:15:30;;;;;;;;;;;;;;;-148.22;100.00;58358.63;4996453;28;1177;-91
2021/06/30 14:18:22;;;;;;;;;;;;;;;-148.22;100.00;58358.63;5009437;28;1296;-90
2021/06/30 14:21:04;;;;;;;;;;;;;;;-148.22;100.00;58358.63;4999618;28;1196;-90
2021/06/30 14:23:43;;;;;;;;;;;;;;;-148.22;100.00;58358.63;5011682;28;1902;-90
2021/06/30 14:26:08;;;;;;;;;;;;;;;-148.22;100.00;58358.63;5015267;28;1255;-86
2021/06/30 14:28:48;;;;;;;;;;;;;;;-148.22;100.00;58358.63;5014376;28;1469;-86
2021/06/30 14:31:15;;;;;;;;;;;;;;;-148.22;100.00;58358.63;5015056;28;1528;-83
2021/06/30 14:33:49;;;;;;;;;;;;;;;-148.22;100.00;58358.63;5014339;28;1726;-87
2021/06/30 14:36:15;;;;;;;;;;;;;;;-148.22;100.00;58358.63;5014333;28;1235;-84
2021/06/30 14:38:51;;;;;;;;;;;;;;;-148.22;100.00;58358.63;5010914;28;1271;-83
2021/06/30 14:41:19;;;;;;;;;;;;;;;-148.22;100.00;58358.63;5014723;28;1597;-83
2021/06/30 14:43:51;;;;;;;;;;;;;;;-148.22;100.00;58358.63;5013527;28;1950;-84
2021/06/30 14:46:25;;;;;;;;;;;;;;;-148.22;100.00;58358.63;5013917;28;1414;-85
2021/06/30 14:49:04;;;;;;;;;;;;;;;-148.22;100.00;58358.63;4995422;28;1573;-83
2021/06/30 14:51:31;;;;;;;;;;;;;;;-148.22;100.00;58358.63;4998246;28;1504;-84
2021/06/30 14:54:31;;;;;;;;;;;;;;;-148.22;100.00;58358.63;5013089;28;1235;-84
2021/06/30 14:56:58;;;;;;;;;;;;;;;-148.22;100.00;58358.63;4936037;29;1178;-84
2021/06/30 14:59:24;;;;;;;;;;;;;;;-148.22;100.00;58358.63;4919615;29;1274;-85
2021/06/30 15:02:04;;;;;;;;;;;;;;;-148.22;100.00;58358.63;4921620;29;1316;-89
2021/06/30 15:04:30;;;;;;;;;;;;;;;-148.22;100.00;58358.63;4919899;29;1596;-86
2021/06/30 15:07:06;;;;;;;;;;;;;;;-148.22;100.00;58358.63;4936226;29;1215;-85
2021/06/30 15:09:33;;;;;;;;;;;;;;;-148.22;100.00;58358.63;4937428;29;765;-84
2021/06/30 15:12:01;;;;;;;;;;;;;;;-148.22;100.00;58358.63;4920991;29;1334;-83
2021/06/30 15:14:35;;;;;;;;;;;;;;;-148.22;100.00;58358.63;4937205;29;772;-83
2021/06/30 15:17:02;;;;;;;;;;;;;;;-148.22;100.00;58358.63;4921162;29;1245;-82
2021/06/30 15:19:41;;;;;;;;;;;;;;;-148.22;100.00;58358.63;4936954;29;1335;-82
2021/06/30 15:22:08;;;;;;;;;;;;;;;-148.22;100.00;58358.63;4936274;29;1902;-81
2021/06/30 15:24:35;;;;;;;;;;;;;;;-148.22;100.00;58358.63;4920890;29;1185;-81
2021/06/30 15:27:03;;;;;;;;;;;;;;;-148.22;100.00;58358.63;4920293;29;1374;-82
2021/06/30 15:29:29;;;;;;;;;;;;;;;-148.22;100.00;58358.63;4920959;29;1173;-81
2021/06/30 15:32:03;;;;;;;;;;;;;;;-148.22;100.00;58358.63;5006362;28;1217;-82
2021/06/30 15:34:45;;;;;;;;;;;;;;;-148.22;100.00;58358.63;5016366;28;1291;-81
2021/06/30 15:37:13;;;;;;;;;;;;;;;-148.22;100.00;58358.63;5015096;28;1351;-82
2021/06/30 15:39:44;;;;;;;;;;;;;;;-148.22;100.00;58358.63;5014943;28;1306;-81
2021/06/30 15:42:17;;;;;;;;;;;;;;;-148.22;100.00;58358.63;5014143;28;1887;-82
2021/06/30 15:44:47;;;;;;;;;;;;;;;-148.22;100.00;58358.63;5030229;28;1199;-81
2021/06/30 15:47:14;;;;;;;;;;;;;;;-148.22;100.00;58358.63;5014803;28;1402;-81
2021/06/30 15:49:40;;;;;;;;;;;;;;;-148.22;100.00;58358.63;5015430;28;1068;-81
2021/06/30 15:52:41;;;;;;;;;;;;;;;-148.22;100.00;58358.63;5013888;28;1235;-81
2021/06/30 15:55:06;;;;;;;;;;;;;;;-148.22;100.00;58358.63;5029406;28;1306;-82
2021/06/30 15:57:33;;;;;;;;;;;;;;;-148.22;100.00;58358.63;5027849;28;1223;-81
2021/06/30 15:59:58;;;;;;;;;;;;;;;-148.22;100.00;58358.63;5033059;28;1189;-81
2021/06/30 16:02:26;;;;;;;;;;;;;;;-148.22;100.00;58358.63;5029772;28;1924;-82
2021/06/30 16:04:51;;;;;;;;;;;;;;;-148.22;100.00;58358.63;5033553;28;1210;-82
2021/06/30 16:07:17;;;;;;;;;;;;;;;-148.22;100.00;58358.63;5033570;28;1009;-82
2021/06/30 16:09:44;;;;;;;;;;;;;;;-148.22;100.00;58358.63;5013457;28;1198;-82
2021/06/30 16:12:12;;;;;;;;;;;;;;;-148.22;100.00;58358.63;4997409;28;1290;-82
2021/06/30 16:14:38;;;;;;;;;;;;;;;-148.22;100.00;58358.63;4999604;28;1272;-81
2021/06/30 16:17:05;;;;;;;;;;;;;;;-148.22;100.00;58358.63;5017135;28;1286;-82
2021/06/30 16:19:32;;;;;;;;;;;;;;;-148.22;100.00;58358.63;5030210;28;1497;-82
2021/06/30 16:21:58;;;;;;;;;;;;;;;-148.22;100.00;58358.63;5033491;28;1169;-82
2021/06/30 16:24:33;;;;;;;;;;;;;;;-148.22;100.00;58358.63;5032318;28;1914;-82
2021/06/30 16:27:25;;;;;;;;;;;;;;;-148.22;100.00;58358.63;5035358;28;1252;-82
2021/06/30 16:29:52;;;;;;;;;;;;;;;-148.22;100.00;58358.63;5020899;28;1177;-82
2021/06/30 16:32:38;;;;;;;;;;;;;;;-148.22;100.00;58358.63;5034858;28;1252;-82
2021/06/30 16:35:04;;;;;;;;;;;;;;;-148.22;100.00;58358.63;5019519;28;842;-82
2021/06/30 16:37:31;;;;;;;;;;;;;;;-148.22;100.00;58358.63;5018266;28;1387;-82
2021/06/30 16:40:09;;;;;;;;;;;;;;;-148.22;100.00;58358.63;5018487;28;1325;-82
2021/06/30 16:42:48;;;;;;;;;;;;;;;-148.22;100.00;58358.63;5018165;28;1953;-83
2021/06/30 16:45:20;;;;;;;;;;;;;;;-148.22;100.00;58358.63;5018154;28;1321;-82
2021/06/30 16:47:54;;;;;;;;;;;;;;;-148.22;100.00;58358.63;5018015;28;1195;-82
2021/06/30 16:50:22;;;;;;;;;;;;;;;-148.22;100.00;58358.63;5018066;28;1382;-81
2021/06/30 16:52:53;;;;;;;;;;;;;;;-148.22;100.00;58358.63;5018081;28;1163;-82
2021/06/30 16:55:19;;;;;;;;;;;;;;;-148.22;100.00;58358.63;5018090;28;1163;-83
2021/06/30 16:57:45;;;;;;;;;;;;;;;-148.22;100.00;58358.63;5019301;28;953;-82
2021/06/30 17:00:11;;;;;;;;;;;;;;;-148.22;100.00;58358.63;5013764;28;1231;-82
2021/06/30 17:02:41;;;;;;;;;;;;;;;-148.22;100.00;58358.63;5003391;28;1951;-82
2021/06/30 17:05:07;;;;;;;;;;;;;;;-148.22;100.00;58358.63;5017793;28;1289;-81
2021/06/30 17:07:34;;;;;;;;;;;;;;;-148.22;100.00;58358.63;5017751;28;1298;-82
2021/06/30 17:10:00;;;;;;;;;;;;;;;-148.22;100.00;58358.63;5019012;28;992;-82
2021/06/30 17:12:36;;;;;;;;;;;;;;;-148.22;100.00;58358.63;5018933;28;812;-82
2021/06/30 17:15:04;;;;;;;;;;;;;;;-148.22;100.00;58358.63;5018904;28;827;-82
2021/06/30 17:17:31;;;;;;;;;;;;;;;-148.22;100.00;58358.63;5017518;28;1324;-81
2021/06/30 17:20:06;;;;;;;;;;;;;;;-148.22;100.00;58358.63;5017535;28;1243;-82
2021/06/30 17:22:32;;;;;;;;;;;;;;;-148.22;100.00;58358.63;5018637;28;1963;-82
2021/06/30 17:25:07;;;;;;;;;;;;;;;-148.22;100.00;58358.63;5017455;28;1199;-82
2021/06/30 17:27:45;;;;;;;;;;;;;;;-148.22;100.00;58358.63;5017321;28;1207;-83
2021/06/30 17:30:22;;;;;;;;;;;;;;;-148.22;100.00;58358.63;5017352;28;1294;-83
2021/06/30 17:32:54;;;;;;;;;;;;;;;-148.22;100.00;58358.63;5017412;28;1388;-83
2021/06/30 17:35:21;;;;;;;;;;;;;;;-148.22;100.00;58358.63;5018081;28;887;-83
2021/06/30 17:38:05;;;;;;;;;;;;;;;-148.22;100.00;58358.63;5017330;28;1271;-82
2021/06/30 17:40:38;;;;;;;;;;;;;;;-148.22;100.00;58358.63;5017195;28;1340;-82
2021/06/30 17:43:29;;;;;;;;;;;;;;;-148.22;100.00;58358.63;5017012;28;1950;-83
2021/06/30 17:46:01;;;;;;;;;;;;;;;-148.22;100.00;58358.63;5017236;28;1322;-82
2021/06/30 17:48:38;;;;;;;;;;;;;;;-148.22;100.00;58358.63;5017070;28;1147;-82
2021/06/30 17:51:12;;;;;;;;;;;;;;;-148.22;100.00;58358.63;5017145;28;1299;-82
2021/06/30 17:53:46;;;;;;;;;;;;;;;-148.22;100.00;58358.63;5017000;28;1174;-83
2021/06/30 17:59:14;;;;;;;;;;;;;;;-148.22;100.00;58358.63;5018109;28;654;-82
2021/06/30 18:01:40;;;;;;;;;;;;;;;-148.22;100.00;58358.63;5017953;28;1181;-82
2021/06/30 18:04:05;;;;;;;;;;;;;;;-148.22;100.00;58358.63;5016620;28;1894;-82
2021/06/30 18:06:36;;;;;;;;;;;;;;;-148.22;100.00;58358.63;5016661;28;1288;-82
2021/06/30 18:09:03;;;;;;;;;;;;;;;-148.22;100.00;58358.63;5016768;28;1404;-82
2021/06/30 18:11:36;;;;;;;;;;;;;;;-148.22;100.00;58358.63;5016697;28;1147;-82
2021/06/30 18:14:08;;;;;;;;;;;;;;;-148.22;100.00;58358.63;5014809;28;1408;-82
2021/06/30 18:16:36;;;;;;;;;;;;;;;-148.22;100.00;58358.63;5016593;28;1163;-82
2021/06/30 18:19:03;;;;;;;;;;;;;;;-148.22;100.00;58358.63;5016588;28;1324;-83
2021/06/30 18:21:29;;;;;;;;;;;;;;;-148.22;100.00;58358.63;5016487;28;1155;-82
2021/06/30 18:24:06;;;;;;;;;;;;;;;-148.22;100.00;58358.63;5016321;28;1898;-82
2021/06/30 18:26:41;;;;;;;;;;;;;;;-148.22;100.00;58358.63;5016342;28;1201;-82
2021/06/30 18:29:08;;;;;;;;;;;;;;;-148.22;100.00;58358.63;5015631;28;1191;-81
2021/06/30 18:31:33;;;;;;;;;;;;;;;-148.22;100.00;58358.63;5012974;28;1184;-82
2021/06/30 18:34:01;;;;;;;;;;;;;;;-148.22;100.00;58358.63;5012854;28;1461;-82
2021/06/30 18:36:29;;;;;;;;;;;;;;;-148.22;100.00;58358.63;4996626;28;1233;-83
2021/06/30 18:38:54;;;;;;;;;;;;;;;-148.22;100.00;58358.63;4997712;28;776;-83
2021/06/30 18:41:34;;;;;;;;;;;;;;;-148.22;100.00;58358.63;5012887;28;1316;-83
2021/06/30 18:44:09;;;;;;;;;;;;;;;-148.22;100.00;58358.63;4997720;28;1941;-82
2021/06/30 18:46:55;;;;;;;;;;;;;;;-148.22;100.00;58358.63;5012038;28;1275;-79
2021/06/30 18:49:22;;;;;;;;;;;;;;;-148.22;100.00;58358.63;5012658;28;1309;-82
2021/06/30 18:51:50;;;;;;;;;;;;;;;-148.22;100.00;58358.63;4997418;28;776;-82
2021/06/30 18:54:16;;;;;;;;;;;;;;;-148.22;100.00;58358.63;5013198;28;1058;-82
2021/06/30 18:56:46;;;;;;;;;;;;;;;-148.22;100.00;58358.63;5016915;28;795;-82
2021/06/30 18:59:11;;;;;;;;;;;;;;;-148.22;100.00;58358.63;5016941;28;862;-82
2021/06/30 19:01:42;;;;;;;;;;;;;;;-148.22;100.00;58358.63;5015653;28;1172;-83
2021/06/30 19:04:08;;;;;;;;;;;;;;;-148.22;100.00;58358.63;5015579;28;1895;-83
2021/06/30 19:06:35;;;;;;;;;;;;;;;-148.22;100.00;58358.63;5015913;28;1217;-82
2021/06/30 19:09:11;;;;;;;;;;;;;;;-148.22;100.00;58358.63;5017149;28;1052;-82
2021/06/30 19:11:38;;;;;;;;;;;;;;;-148.22;100.00;58358.63;5014605;28;1387;-82
2021/06/30 19:14:07;;;;;;;;;;;;;;;-148.22;100.00;58358.63;5013751;28;1170;-83
2021/06/30 19:16:34;;;;;;;;;;;;;;;-148.22;100.00;58358.63;5015509;28;1206;-82
2021/06/30 19:22:05;;;;;;;;;;;;;;;-148.22;100.00;58358.63;5013247;28;899;-83
2021/06/30 19:24:30;;;;;;;;;;;;;;;-148.22;100.00;58358.63;5015201;28;1903;-82
2021/06/30 19:27:02;;;;;;;;;;;;;;;-148.22;100.00;58358.63;5015261;28;1155;-82
2021/06/30 19:29:37;;;;;;;;;;;;;;;-148.22;100.00;58358.63;5015241;28;1380;-82
2021/06/30 19:32:04;;;;;;;;;;;;;;;-148.22;100.00;58358.63;5015204;28;1221;-82
2021/06/30 19:34:37;;;;;;;;;;;;;;;-148.22;100.00;58358.63;5015143;28;1280;-82
2021/06/30 19:37:08;;;;;;;;;;;;;;;-148.22;100.00;58358.63;5015056;28;1189;-82
2021/06/30 19:39:39;;;;;;;;;;;;;;;-148.22;100.00;58358.63;5015149;28;1151;-82
2021/06/30 19:42:14;;;;;;;;;;;;;;;-148.22;100.00;58358.63;5015047;28;1250;-85
2021/06/30 19:44:39;;;;;;;;;;;;;;;-148.22;100.00;58358.63;5015093;28;1290;-83
2021/06/30 19:47:07;;;;;;;;;;;;;;;-148.22;100.00;58358.63;5007833;28;1334;-82
2021/06/30 19:49:35;;;;;;;;;;;;;;;-148.22;100.00;58358.63;4996730;28;804;-83
2021/06/30 19:52:06;;;;;;;;;;;;;;;-148.22;100.00;58358.63;4995130;28;1364;-82
2021/06/30 19:54:32;;;;;;;;;;;;;;;-148.22;100.00;58358.63;4995177;28;1340;-82
2021/06/30 19:57:00;;;;;;;;;;;;;;;-148.22;100.00;58358.63;4995187;28;1152;-82
2021/06/30 19:59:27;;;;;;;;;;;;;;;-148.22;100.00;58358.63;5013736;28;1122;-82
2021/06/30 20:02:00;;;;;;;;;;;;;;;-148.22;100.00;58358.63;5014686;28;1242;-84
2021/06/30 20:04:26;;;;;;;;;;;;;;;-148.22;100.00;58358.63;5014579;28;1911;-84
2021/06/30 20:06:51;;;;;;;;;;;;;;;-148.22;100.00;58358.63;5013594;28;1301;-84
2021/06/30 20:09:21;;;;;;;;;;;;;;;-148.22;100.00;58358.63;5014523;28;1288;-84
2021/06/30 20:12:17;;;;;;;;;;;;;;;-148.22;100.00;58358.63;5014116;28;1197;-84
2021/06/30 20:14:43;;;;;;;;;;;;;;;-148.22;100.00;58358.63;5014022;28;1031;-82
2021/06/30 20:17:20;;;;;;;;;;;;;;;-148.22;100.00;58358.63;5013778;28;1181;-82
2021/06/30 20:19:47;;;;;;;;;;;;;;;-148.22;100.00;58358.63;5012994;28;1065;-82
2021/06/30 20:22:14;;;;;;;;;;;;;;;-148.22;100.00;58358.63;5013252;28;1918;-83
2021/06/30 20:24:39;;;;;;;;;;;;;;;-148.22;100.00;58358.63;5011820;28;1339;-82
2021/06/30 20:27:06;;;;;;;;;;;;;;;-148.22;100.00;58358.63;5000306;28;1230;-82
2021/06/30 20:29:32;;;;;;;;;;;;;;;-148.22;100.00;58358.63;5013746;28;901;-82
2021/06/30 20:31:58;;;;;;;;;;;;;;;-148.22;100.00;58358.63;5012911;28;1055;-83
2021/06/30 20:34:34;;;;;;;;;;;;;;;-148.22;100.00;58358.63;5013398;28;1295;-82
2021/06/30 20:37:00;;;;;;;;;;;;;;;-148.22;100.00;58358.63;5013407;28;1193;-81
2021/06/30 20:39:36;;;;;;;;;;;;;;;-148.22;100.00;58358.63;5013657;28;927;-82
2021/06/30 20:42:02;;;;;;;;;;;;;;;-148.22;100.00;58358.63;5013658;28;970;-82
2021/06/30 20:44:29;;;;;;;;;;;;;;;-148.22;100.00;58358.63;5013646;28;1886;-82
2021/06/30 20:46:57;;;;;;;;;;;;;;;-148.22;100.00;58358.63;5013534;28;1153;-81
2021/06/30 20:49:25;;;;;;;;;;;;;;;-148.22;100.00;58358.63;5012872;28;898;-83
2021/06/30 20:51:52;;;;;;;;;;;;;;;-148.22;100.00;58358.63;5014614;28;938;-82
2021/06/30 20:54:20;;;;;;;;;;;;;;;-148.22;100.00;58358.63;5014363;28;1234;-82
2021/06/30 20:56:56;;;;;;;;;;;;;;;-148.22;100.00;58358.63;5014453;28;1286;-82
2021/06/30 20:59:52;;;;;;;;;;;;;;;-148.22;100.00;58358.63;5014353;28;1183;-82
2021/06/30 21:02:19;;;;;;;;;;;;;;;-148.22;100.00;58358.63;4996949;28;1953;-81
2021/06/30 21:04:45;;;;;;;;;;;;;;;-148.22;100.00;58358.63;5013325;28;1382;-82
2021/06/30 21:07:11;;;;;;;;;;;;;;;-148.22;100.00;58358.63;4996884;28;1368;-82
2021/06/30 21:09:45;;;;;;;;;;;;;;;-148.22;100.00;58358.63;5013269;28;974;-82
2021/06/30 21:12:10;;;;;;;;;;;;;;;-148.22;100.00;58358.63;5016787;28;1243;-82
2021/06/30 21:14:35;;;;;;;;;;;;;;;-148.22;100.00;58358.63;5000468;28;1259;-82
2021/06/30 21:17:03;;;;;;;;;;;;;;;-148.22;100.00;58358.63;5016864;28;1353;-82
2021/06/30 21:19:32;;;;;;;;;;;;;;;-148.22;100.00;58358.63;5016715;28;1207;-84
2021/06/30 21:21:58;;;;;;;;;;;;;;;-148.22;100.00;58358.63;5015798;28;1223;-82
2021/06/30 21:24:35;;;;;;;;;;;;;;;-148.22;100.00;58358.63;5015773;28;1914;-82
2021/06/30 21:27:10;;;;;;;;;;;;;;;-148.22;100.00;58358.63;5016657;28;1300;-83
2021/06/30 21:29:37;;;;;;;;;;;;;;;-148.22;100.00;58358.63;5016600;28;1181;-82
2021/06/30 21:32:03;;;;;;;;;;;;;;;-148.22;100.00;58358.63;5016782;28;1253;-82
2021/06/30 21:34:31;;;;;;;;;;;;;;;-148.22;100.00;58358.63;5016427;28;1174;-82
2021/06/30 21:36:58;;;;;;;;;;;;;;;-148.22;100.00;58358.63;5016563;28;1211;-82